Time;durP1;ratioP1;P1;durP2;ratioP2;P2;SDS_P1;SDS_P2;PMS_P1;PMS_P2;Temp;Humidity;BMP_temperature;BMP_pressure;BME280_temperature;BME280_humidity;BME280_pressure;Samples;Min_cycle;Max_cycle;Signal;HPM_P1;HPM_P2
2023/04/11 00:01:42;;;;;;;63.85;38.47;;;7.20;99.90;;;;;;2603819;54;20035;31
2023/04/11 00:04:19;;;;;;;64.37;39.60;;;7.20;99.90;;;;;;2603831;54;20561;31
2023/04/11 00:06:57;;;;;;;72.38;43.03;;;7.10;99.90;;;;;;2603864;54;20548;31
2023/04/11 00:09:36;;;;;;;73.10;44.90;;;7.20;99.90;;;;;;2622407;46;19936;31
2023/04/11 00:12:14;;;;;;;61.38;39.17;;;7.10;99.90;;;;;;2622519;46;20081;31
2023/04/11 00:14:52;;;;;;;61.90;39.42;;;7.10;99.90;;;;;;2604036;54;20119;31
2023/04/11 00:17:30;;;;;;;60.50;38.50;;;7.10;99.90;;;;;;2603810;54;20111;31
2023/04/11 00:20:09;;;;;;;71.20;45.13;;;7.10;99.90;;;;;;2604090;54;20243;31
2023/04/11 00:22:45;;;;;;;63.88;38.08;;;7.10;99.90;;;;;;2604187;54;20027;31
2023/04/11 00:25:28;;;;;;;55.60;35.28;;;7.10;99.90;;;;;;2622391;46;20030;31
2023/04/11 00:28:04;;;;;;;60.67;37.50;;;7.10;99.90;;;;;;2604007;54;20034;31
2023/04/11 00:30:38;;;;;;;75.25;43.90;;;7.10;99.90;;;;;;2603795;54;19938;31
2023/04/11 00:33:15;;;;;;;69.90;42.97;;;7.10;99.90;;;;;;2603189;54;20975;31
2023/04/11 00:35:54;;;;;;;76.35;45.00;;;7.10;99.90;;;;;;2603674;54;20112;31
2023/04/11 00:38:30;;;;;;;80.28;47.55;;;7.00;99.90;;;;;;2603679;54;20031;31
2023/04/11 00:41:10;;;;;;;68.55;40.70;;;7.00;99.90;;;;;;2604004;54;20568;31
2023/04/11 00:43:48;;;;;;;68.75;40.25;;;7.00;99.90;;;;;;2603964;54;20061;31
2023/04/11 00:46:23;;;;;;;74.80;44.80;;;7.00;99.90;;;;;;2602933;54;20811;31
2023/04/11 00:49:05;;;;;;;70.22;42.67;;;6.90;99.90;;;;;;2603893;54;20053;31
2023/04/11 00:51:39;;;;;;;75.68;45.70;;;6.90;99.90;;;;;;2603449;54;20099;31
2023/04/11 00:54:15;;;;;;;72.00;43.17;;;6.90;99.90;;;;;;2603657;54;20160;31
2023/04/11 00:56:58;;;;;;;73.88;44.22;;;6.90;99.90;;;;;;2603802;54;20942;31
2023/04/11 00:59:34;;;;;;;79.53;44.72;;;6.80;99.90;;;;;;2621957;46;20959;31
2023/04/11 01:02:12;;;;;;;67.20;41.23;;;6.80;99.90;;;;;;2603693;54;20132;31
2023/04/11 01:04:47;;;;;;;71.68;44.60;;;6.70;99.90;;;;;;2603927;54;20027;31
2023/04/11 01:07:22;;;;;;;65.63;40.50;;;6.70;99.90;;;;;;2603772;54;20104;31
2023/04/11 01:09:58;;;;;;;70.67;41.60;;;6.70;99.90;;;;;;2603625;54;20838;31
2023/04/11 01:12:36;;;;;;;79.32;44.42;;;6.60;99.90;;;;;;2603730;54;20034;31
2023/04/11 01:15:13;;;;;;;74.50;43.28;;;6.70;99.90;;;;;;2603744;54;20579;31
2023/04/11 01:17:54;;;;;;;79.68;43.08;;;6.70;99.90;;;;;;2720516;39;22480;31
2023/04/11 01:20:33;;;;;;;71.90;43.65;;;6.50;99.90;;;;;;2720925;39;20460;31
2023/04/11 01:23:06;;;;;;;79.05;45.25;;;6.60;99.90;;;;;;2603437;54;20059;31
2023/04/11 01:25:44;;;;;;;84.93;44.15;;;6.50;99.90;;;;;;2602870;54;21404;31
2023/04/11 01:28:19;;;;;;;91.20;47.65;;;6.50;99.90;;;;;;2603788;54;20044;31
2023/04/11 01:30:56;;;;;;;82.97;46.45;;;6.50;99.90;;;;;;2603813;54;20046;31
2023/04/11 01:33:32;;;;;;;78.20;45.53;;;6.40;99.90;;;;;;2603301;54;20033;31
2023/04/11 01:36:09;;;;;;;76.57;45.10;;;6.40;99.90;;;;;;2603640;54;20033;31
2023/04/11 01:38:44;;;;;;;88.03;46.92;;;6.40;99.90;;;;;;2603468;54;20030;31
2023/04/11 01:41:24;;;;;;;80.67;45.67;;;6.30;99.90;;;;;;2603518;54;19938;31
2023/04/11 01:43:59;;;;;;;79.97;45.00;;;6.30;99.90;;;;;;2603485;54;19954;31
2023/04/11 01:46:35;;;;;;;86.80;47.60;;;6.30;99.90;;;;;;2603633;54;20026;31
2023/04/11 01:49:14;;;;;;;79.45;47.20;;;6.30;99.90;;;;;;2603898;54;20081;31
2023/04/11 01:51:49;;;;;;;79.80;48.15;;;6.30;99.90;;;;;;2603803;54;20573;31
2023/04/11 01:54:27;;;;;;;89.65;49.65;;;6.30;99.90;;;;;;2603338;54;20851;31
2023/04/11 01:57:07;;;;;;;88.43;48.60;;;6.20;99.90;;;;;;2603560;54;20124;31
2023/04/11 01:59:44;;;;;;;84.05;48.80;;;6.20;99.90;;;;;;2603330;54;20022;31
2023/04/11 02:02:21;;;;;;;83.20;46.80;;;6.20;99.90;;;;;;2621927;46;20089;31
2023/04/11 02:05:02;;;;;;;91.85;50.05;;;6.20;99.90;;;;;;2603390;54;20832;31
2023/04/11 02:07:38;;;;;;;83.85;48.05;;;6.20;99.90;;;;;;2603474;54;20895;31
2023/04/11 02:10:13;;;;;;;92.10;50.15;;;6.20;99.90;;;;;;2603358;54;20026;31
2023/04/11 02:12:51;;;;;;;78.20;43.73;;;6.20;99.90;;;;;;2603486;54;20026;31
2023/04/11 02:18:14;;;;;;;82.55;47.55;;;6.10;99.90;;;;;;2603535;54;20022;31
2023/04/11 02:20:51;;;;;;;88.78;47.28;;;6.20;99.90;;;;;;2602963;54;20037;31
2023/04/11 02:23:27;;;;;;;86.15;45.00;;;6.20;99.90;;;;;;2603522;54;20034;31
2023/04/11 02:26:07;;;;;;;84.80;47.80;;;6.10;99.90;;;;;;2621447;46;20794;31
2023/04/11 02:28:45;;;;;;;89.75;48.70;;;6.10;99.90;;;;;;2603108;54;20824;31
2023/04/11 02:31:22;;;;;;;84.00;47.20;;;6.00;99.90;;;;;;2621488;46;20148;31
2023/04/11 02:33:57;;;;;;;86.20;47.65;;;6.00;99.90;;;;;;2603213;54;20914;31
2023/04/11 02:36:36;;;;;;;83.93;46.88;;;6.00;99.90;;;;;;2603465;54;21447;31
2023/04/11 02:39:12;;;;;;;83.60;44.30;;;6.00;99.90;;;;;;2621799;46;20031;31
2023/04/11 02:41:47;;;;;;;76.32;43.83;;;6.00;99.90;;;;;;2603180;54;20052;31
2023/04/11 02:44:28;;;;;;;68.18;40.60;;;5.90;99.90;;;;;;2603387;54;20866;31
2023/04/11 02:47:04;;;;;;;62.35;38.05;;;5.90;99.90;;;;;;2603362;54;20951;31
2023/04/11 02:49:42;;;;;;;79.70;44.55;;;6.00;99.90;;;;;;2603328;54;20887;31
2023/04/11 02:52:21;;;;;;;82.90;45.00;;;5.90;99.90;;;;;;2603222;54;20033;31
2023/04/11 02:54:57;;;;;;;81.13;45.30;;;5.90;99.90;;;;;;2603299;54;20030;31
2023/04/11 02:57:32;;;;;;;78.25;44.50;;;5.90;99.90;;;;;;2603465;54;20026;31
2023/04/11 03:00:12;;;;;;;74.78;41.10;;;5.90;99.90;;;;;;2603076;54;20046;31
2023/04/11 03:02:58;;;;;;;83.70;46.35;;;5.90;99.90;;;;;;2603357;54;19945;31
2023/04/11 03:05:35;;;;;;;79.82;44.03;;;5.90;99.90;;;;;;2603311;54;20033;31
2023/04/11 03:08:10;;;;;;;80.93;45.35;;;5.80;99.90;;;;;;2602451;54;20836;31
2023/04/11 03:10:51;;;;;;;86.30;45.55;;;5.90;99.90;;;;;;2603238;54;20869;31
2023/04/11 03:13:28;;;;;;;86.13;44.63;;;5.80;99.90;;;;;;2621401;46;20022;31
2023/04/11 03:16:07;;;;;;;82.33;43.33;;;5.80;99.90;;;;;;2603187;54;20031;31
2023/04/11 03:18:42;;;;;;;82.25;44.60;;;5.80;99.90;;;;;;2603170;54;20048;31
2023/04/11 03:21:20;;;;;;;87.18;47.55;;;5.70;99.90;;;;;;2701541;39;21358;31
2023/04/11 03:23:55;;;;;;;78.05;42.65;;;5.70;99.90;;;;;;2621543;46;20085;31
2023/04/11 03:26:31;;;;;;;78.22;43.13;;;5.70;99.90;;;;;;2603197;54;20027;31
2023/04/11 03:29:15;;;;;;;91.00;46.17;;;5.70;99.90;;;;;;2603160;54;20894;31
2023/04/11 03:32:09;;;;;;;88.17;45.83;;;5.70;99.90;;;;;;2603235;54;20022;31
2023/04/11 03:34:46;;;;;;;71.97;41.58;;;5.60;99.90;;;;;;2621761;46;20832;31
2023/04/11 03:37:22;;;;;;;77.97;44.28;;;5.60;99.90;;;;;;2603087;54;20034;31
2023/04/11 03:39:57;;;;;;;77.93;42.72;;;5.70;99.90;;;;;;2602956;54;20097;31
2023/04/11 03:42:32;;;;;;;79.80;42.87;;;5.70;99.90;;;;;;2602996;54;19934;31
2023/04/11 03:45:11;;;;;;;84.10;43.35;;;5.70;99.90;;;;;;2603002;54;20574;31
2023/04/11 03:47:49;;;;;;;73.23;41.27;;;5.70;99.90;;;;;;2603208;54;20835;31
2023/04/11 03:50:29;;;;;;;83.53;42.58;;;5.70;99.90;;;;;;2603205;54;20081;31
2023/04/11 03:53:08;;;;;;;79.20;44.72;;;5.70;99.90;;;;;;2621298;47;20115;31
2023/04/11 03:55:45;;;;;;;76.68;42.63;;;5.70;99.90;;;;;;2603112;54;20022;31
2023/04/11 03:58:23;;;;;;;93.43;46.95;;;5.70;99.90;;;;;;2613138;47;20023;31
2023/04/11 04:00:58;;;;;;;83.07;46.07;;;5.60;99.90;;;;;;2602930;54;20899;31
2023/04/11 04:03:36;;;;;;;86.95;46.47;;;5.70;99.90;;;;;;2602620;54;20026;31
2023/04/11 04:06:13;;;;;;;90.07;48.10;;;5.60;99.90;;;;;;2602957;54;20801;31
2023/04/11 04:08:49;;;;;;;82.55;45.25;;;5.70;99.90;;;;;;2602836;54;20026;31
2023/04/11 04:11:27;;;;;;;81.45;42.35;;;5.70;99.90;;;;;;2791212;31;20604;31
2023/04/11 04:14:04;;;;;;;75.60;43.78;;;5.70;99.90;;;;;;2602908;54;20026;31
2023/04/11 04:16:39;;;;;;;85.75;45.55;;;5.70;99.90;;;;;;2603073;54;20931;31
2023/04/11 04:19:16;;;;;;;73.80;41.80;;;5.70;99.90;;;;;;2603193;54;20026;31
2023/04/11 04:21:56;;;;;;;82.10;43.70;;;5.70;99.90;;;;;;2602884;54;20896;31
2023/04/11 04:24:38;;;;;;;80.82;46.38;;;5.70;99.90;;;;;;2602910;54;20769;31
2023/04/11 04:27:24;;;;;;;71.65;41.53;;;5.70;99.90;;;;;;2603959;54;20894;31
2023/04/11 04:30:00;;;;;;;69.78;39.88;;;5.80;99.90;;;;;;2603955;54;20085;31
2023/04/11 04:32:58;;;;;;;66.97;38.53;;;5.80;99.90;;;;;;2622257;46;20022;31
2023/04/11 04:35:38;;;;;;;84.20;46.97;;;5.80;99.90;;;;;;2603886;54;20046;31
2023/04/11 04:38:16;;;;;;;71.17;43.20;;;5.80;99.90;;;;;;2622155;46;20114;31
2023/04/11 04:41:00;;;;;;;79.88;43.55;;;5.80;99.90;;;;;;2603757;54;20026;31
2023/04/11 04:43:36;;;;;;;80.93;46.50;;;5.80;99.90;;;;;;2702540;39;22489;31
2023/04/11 04:46:18;;;;;;;88.05;48.97;;;5.90;99.90;;;;;;2603808;54;20022;31
2023/04/11 04:48:59;;;;;;;73.95;43.30;;;5.90;99.90;;;;;;2603628;54;20553;31
2023/04/11 04:51:39;;;;;;;73.23;41.37;;;5.90;99.90;;;;;;2605687;46;19934;31
2023/04/11 04:54:14;;;;;;;77.50;45.25;;;6.00;99.90;;;;;;2603566;54;20003;31
2023/04/11 04:56:51;;;;;;;84.97;46.72;;;6.00;99.90;;;;;;2603838;54;20082;31
2023/04/11 04:59:28;;;;;;;85.20;47.85;;;6.00;99.90;;;;;;2603720;54;20031;31
2023/04/11 05:02:15;;;;;;;93.95;51.05;;;6.00;99.90;;;;;;2603509;54;20854;31
2023/04/11 05:04:52;;;;;;;84.97;48.57;;;6.00;99.90;;;;;;2702108;39;20464;31
2023/04/11 05:07:33;;;;;;;89.40;49.95;;;6.00;99.90;;;;;;2701914;39;20361;31
2023/04/11 05:10:11;;;;;;;94.80;53.20;;;6.10;99.90;;;;;;2603866;54;20022;31
2023/04/11 05:12:47;;;;;;;88.65;51.88;;;6.10;99.90;;;;;;2622160;46;20782;31
2023/04/11 05:15:23;;;;;;;91.43;52.03;;;6.10;99.90;;;;;;2603583;54;20026;31
2023/04/11 05:17:59;;;;;;;89.15;52.13;;;6.10;99.90;;;;;;2603076;54;20030;31
2023/04/11 05:20:35;;;;;;;91.95;51.35;;;6.10;99.90;;;;;;2603412;54;20906;31
2023/04/11 05:23:12;;;;;;;90.90;53.25;;;6.10;99.90;;;;;;2603578;54;20561;31
2023/04/11 05:25:51;;;;;;;83.90;47.22;;;6.20;99.90;;;;;;2603001;54;20626;31
2023/04/11 05:28:29;;;;;;;89.65;51.10;;;6.20;99.90;;;;;;2603497;54;20760;31
2023/04/11 05:31:07;;;;;;;87.65;50.70;;;6.20;99.90;;;;;;2702213;39;20473;31
2023/04/11 05:33:42;;;;;;;90.93;49.53;;;6.20;99.90;;;;;;2764929;31;20079;31
2023/04/11 05:36:18;;;;;;;81.65;47.53;;;6.20;99.90;;;;;;2603370;54;20026;31
2023/04/11 05:38:54;;;;;;;77.53;45.27;;;6.20;99.90;;;;;;2621559;46;20775;31
2023/04/11 05:41:33;;;;;;;83.47;48.00;;;6.20;99.90;;;;;;2602673;54;20258;31
2023/04/11 05:44:09;;;;;;;85.55;48.80;;;6.20;99.90;;;;;;2610217;46;20099;31
2023/04/11 05:46:45;;;;;;;79.60;48.13;;;6.20;99.90;;;;;;2603560;54;20104;31
2023/04/11 05:49:22;;;;;;;80.87;47.23;;;6.20;99.90;;;;;;2603615;54;20608;31
2023/04/11 05:51:56;;;;;;;;;;;6.20;99.90;;;;;;2603603;54;20095;31
2023/04/11 05:54:36;;;;;;;75.97;44.25;;;6.20;99.90;;;;;;2603377;54;20765;31
2023/04/11 05:57:16;;;;;;;80.43;43.90;;;6.20;99.90;;;;;;2621613;46;20026;31
2023/04/11 05:59:52;;;;;;;74.40;44.45;;;6.30;99.90;;;;;;2603469;54;20850;31
2023/04/11 06:02:28;;;;;;;81.35;44.55;;;6.30;99.90;;;;;;2603243;54;20041;31
2023/04/11 06:05:04;;;;;;;73.63;44.58;;;6.30;99.90;;;;;;2602727;54;20855;31
2023/04/11 06:07:40;;;;;;;;;;;6.40;99.90;;;;;;2603544;54;20030;31
2023/04/11 06:10:15;;;;;;;69.70;40.95;;;6.40;99.90;;;;;;2621990;46;19941;31
2023/04/11 06:12:53;;;;;;;68.10;41.05;;;6.50;99.90;;;;;;2621659;46;20116;31
2023/04/11 06:15:29;;;;;;;69.78;41.28;;;6.50;99.90;;;;;;2603310;54;20030;31
2023/04/11 06:18:04;;;;;;;71.60;40.88;;;6.60;99.90;;;;;;2603379;54;20045;31
2023/04/11 06:20:42;;;;;;;70.00;40.90;;;6.60;99.90;;;;;;2621995;46;20882;31
2023/04/11 06:23:17;;;;;;;71.93;39.75;;;6.70;99.90;;;;;;2603363;54;20033;31
2023/04/11 06:25:52;;;;;;;67.80;40.28;;;6.70;99.90;;;;;;2621980;46;20030;31
2023/04/11 06:28:31;;;;;;;63.00;40.00;;;6.80;99.90;;;;;;2603313;54;20026;31
2023/04/11 06:31:10;;;;;;;59.28;34.75;;;6.80;99.90;;;;;;2621635;46;20156;31
2023/04/11 06:33:45;;;;;;;61.33;37.53;;;6.90;99.90;;;;;;2603532;54;19938;31
2023/04/11 06:36:20;;;;;;;60.05;37.60;;;6.90;99.90;;;;;;2603284;54;20022;31
2023/04/11 06:38:58;;;;;;;60.10;37.25;;;7.00;99.90;;;;;;2603205;54;20128;31
2023/04/11 06:41:36;;;;;;;66.75;38.75;;;7.00;99.90;;;;;;2603501;54;20573;31
2023/04/11 06:44:15;;;;;;;61.73;36.70;;;7.00;99.90;;;;;;2702006;39;20509;31
2023/04/11 06:46:51;;;;;;;61.08;38.67;;;7.10;99.90;;;;;;2621614;46;20027;31
2023/04/11 06:49:26;;;;;;;64.80;38.40;;;7.10;99.90;;;;;;2603015;54;20093;31
2023/04/11 06:52:02;;;;;;;58.17;36.67;;;7.20;99.90;;;;;;2621913;46;20030;31
2023/04/11 06:54:40;;;;;;;58.88;38.75;;;7.20;99.90;;;;;;2622242;46;20841;31
2023/04/11 06:57:16;;;;;;;59.78;36.58;;;7.20;99.90;;;;;;2603311;54;20834;31
2023/04/11 06:59:56;;;;;;;56.75;37.90;;;7.20;99.90;;;;;;2621830;46;20022;31
2023/04/11 07:02:34;;;;;;;60.28;36.50;;;7.30;99.90;;;;;;2603355;54;20886;31
2023/04/11 07:05:12;;;;;;;57.47;35.38;;;7.30;99.90;;;;;;2720551;39;20446;31
2023/04/11 07:07:48;;;;;;;58.63;34.53;;;7.30;99.90;;;;;;2603226;54;20033;31
2023/04/11 07:10:27;;;;;;;61.70;37.17;;;7.30;99.90;;;;;;2603351;54;20894;31
2023/04/11 07:13:03;;;;;;;55.07;34.23;;;7.40;99.90;;;;;;2603389;54;21333;31
2023/04/11 07:15:40;;;;;;;;;;;7.40;99.90;;;;;;2603538;54;20052;31
2023/04/11 07:18:24;;;;;;;58.65;35.88;;;7.40;99.90;;;;;;2622076;46;19934;31
2023/04/11 07:21:01;;;;;;;58.90;37.47;;;7.50;99.90;;;;;;2603333;54;20887;31
2023/04/11 07:23:40;;;;;;;62.47;38.03;;;7.50;99.90;;;;;;2602942;54;20026;31
2023/04/11 07:26:15;;;;;;;58.97;38.05;;;7.60;99.90;;;;;;2603396;54;21200;31
2023/04/11 07:28:51;;;;;;;57.70;35.60;;;7.60;99.90;;;;;;2602997;54;20026;31
2023/04/11 07:31:28;;;;;;;54.35;36.13;;;7.60;99.90;;;;;;2621748;46;20033;31
2023/04/11 07:34:07;;;;;;;58.67;35.87;;;7.70;99.90;;;;;;2701528;39;21472;31
2023/04/11 07:36:45;;;;;;;57.35;35.35;;;7.70;99.90;;;;;;2603272;54;20779;31
2023/04/11 07:39:21;;;;;;;55.58;33.60;;;7.80;99.90;;;;;;2618548;46;20045;31
2023/04/11 07:41:59;;;;;;;52.30;32.33;;;7.90;99.90;;;;;;2621615;47;20044;31
2023/04/11 07:44:35;;;;;;;56.53;35.85;;;7.90;99.90;;;;;;2621727;47;20026;31
2023/04/11 07:47:11;;;;;;;57.30;34.30;;;8.00;99.90;;;;;;2603000;54;20952;31
2023/04/11 07:49:50;;;;;;;62.97;36.20;;;8.00;99.90;;;;;;2603281;54;20029;31
2023/04/11 07:52:28;;;;;;;62.65;36.08;;;8.10;99.90;;;;;;2603091;54;20925;31
2023/04/11 07:55:05;;;;;;;66.00;39.55;;;8.10;99.90;;;;;;2603232;54;20893;31
2023/04/11 07:57:43;;;;;;;67.47;39.90;;;8.20;99.90;;;;;;2603163;54;20870;31
2023/04/11 08:00:23;;;;;;;68.20;40.17;;;8.20;99.90;;;;;;2603099;54;20945;31
2023/04/11 08:03:03;;;;;;;67.22;41.60;;;8.30;99.90;;;;;;2603945;54;20852;31
2023/04/11 08:05:44;;;;;;;64.60;39.00;;;8.40;99.90;;;;;;2603916;54;20023;31
2023/04/11 08:08:25;;;;;;;66.10;39.33;;;8.40;99.90;;;;;;2604056;54;20027;31
2023/04/11 08:11:01;;;;;;;59.53;35.65;;;8.50;99.90;;;;;;2603086;54;21209;31
2023/04/11 08:13:39;;;;;;;61.80;38.25;;;8.60;99.90;;;;;;2610790;46;20030;31
2023/04/11 08:16:16;;;;;;;59.75;36.67;;;8.60;99.90;;;;;;2603805;54;20834;31
2023/04/11 08:18:56;;;;;;;56.83;35.28;;;8.70;99.90;;;;;;2603124;54;20033;31
2023/04/11 08:21:36;;;;;;;54.45;35.53;;;8.80;99.90;;;;;;2608700;46;20073;31
2023/04/11 08:24:12;;;;;;;53.55;34.33;;;8.90;99.90;;;;;;2603756;54;20089;31
2023/04/11 08:26:48;;;;;;;47.38;33.03;;;9.00;99.90;;;;;;2604003;54;20083;31
2023/04/11 08:29:21;;;;;;;;;;;9.10;99.90;;;;;;2702850;39;21038;31
2023/04/11 08:31:56;;;;;;;48.40;29.55;;;9.20;99.90;;;;;;2622384;46;20809;31
2023/04/11 08:34:35;;;;;;;50.55;30.10;;;9.30;99.90;;;;;;2773066;31;20641;31
2023/04/11 08:37:13;;;;;;;49.58;29.58;;;9.40;99.90;;;;;;2603893;54;20265;31
2023/04/11 08:39:50;;;;;;;48.23;30.43;;;9.40;99.90;;;;;;2603002;54;20027;31
2023/04/11 08:42:27;;;;;;;49.90;29.95;;;9.50;99.90;;;;;;2622144;46;19950;31
2023/04/11 08:45:03;;;;;;;44.22;28.83;;;9.60;99.90;;;;;;2603617;54;20026;31
2023/04/11 08:47:40;;;;;;;45.13;29.65;;;9.70;99.90;;;;;;2603699;54;20041;31
2023/04/11 08:50:20;;;;;;;50.40;32.40;;;9.80;99.90;;;;;;2622503;46;20026;31
2023/04/11 08:53:02;;;;;;;52.23;32.57;;;9.80;99.90;;;;;;2603748;54;20858;31
2023/04/11 08:55:46;;;;;;;52.85;32.80;;;9.90;99.90;;;;;;2622270;46;20085;31
2023/04/11 08:58:21;;;;;;;47.60;31.45;;;10.00;99.90;;;;;;2603595;54;20943;31
2023/04/11 09:01:05;;;;;;;50.60;33.58;;;10.10;99.90;;;;;;2602971;54;20041;31
2023/04/11 09:03:52;;;;;;;49.60;33.05;;;10.10;99.90;;;;;;2603834;54;20156;31
2023/04/11 09:06:32;;;;;;;53.95;35.25;;;10.20;99.90;;;;;;2603965;54;20052;31
2023/04/11 09:09:08;;;;;;;55.88;38.03;;;10.30;99.90;;;;;;2603790;54;20877;31
2023/04/11 09:11:57;;;;;;;51.55;32.20;;;10.50;99.90;;;;;;2602834;54;20104;31
2023/04/11 09:14:37;;;;;;;49.33;31.73;;;10.60;99.90;;;;;;2603543;54;20045;31
2023/04/11 09:17:21;;;;;;;49.92;33.25;;;10.70;99.90;;;;;;2603596;54;20855;31
2023/04/11 09:19:59;;;;;;;47.00;29.70;;;10.90;99.90;;;;;;2603821;54;20027;31
2023/04/11 09:22:38;;;;;;;47.53;31.55;;;11.00;99.90;;;;;;2622237;46;20050;31
2023/04/11 09:25:19;;;;;;;45.55;30.35;;;11.10;99.90;;;;;;2602915;54;20104;31
2023/04/11 09:28:10;;;;;;;49.07;30.70;;;11.20;99.90;;;;;;2602485;54;20058;31
2023/04/11 09:30:51;;;;;;;40.92;27.70;;;11.30;99.90;;;;;;2603676;54;20065;31
2023/04/11 09:33:30;;;;;;;44.97;29.60;;;11.30;99.90;;;;;;2602908;54;20026;31
2023/04/11 09:36:05;;;;;;;42.20;26.90;;;11.40;99.90;;;;;;2603683;54;21843;31
2023/04/11 09:38:43;;;;;;;37.40;25.90;;;11.50;99.90;;;;;;2621633;46;20034;31
2023/04/11 09:41:22;;;;;;;36.75;25.08;;;11.50;99.90;;;;;;2603724;54;20279;31
2023/04/11 09:44:02;;;;;;;36.45;25.88;;;11.60;99.90;;;;;;2603335;54;20049;31
2023/04/11 09:46:40;;;;;;;39.00;26.35;;;11.70;99.90;;;;;;2621810;46;20885;31
2023/04/11 09:49:18;;;;;;;38.55;26.30;;;11.70;99.90;;;;;;2602793;54;20034;31
2023/04/11 09:51:54;;;;;;;37.78;24.92;;;11.80;99.90;;;;;;2603787;54;20056;31
2023/04/11 09:54:30;;;;;;;35.90;24.17;;;11.80;99.90;;;;;;2702077;39;20459;31
2023/04/11 09:57:11;;;;;;;32.33;22.15;;;11.90;99.90;;;;;;2702273;39;20536;31
2023/04/11 09:59:52;;;;;;;29.80;22.27;;;11.90;99.90;;;;;;2621885;46;20081;31
2023/04/11 10:02:27;;;;;;;33.78;22.42;;;12.00;99.90;;;;;;2702233;39;20793;31
2023/04/11 10:05:04;;;;;;;30.55;20.65;;;12.00;99.90;;;;;;2602697;54;20963;31
2023/04/11 10:07:49;;;;;;;33.55;21.08;;;12.20;99.90;;;;;;2603389;54;20026;31
2023/04/11 10:13:07;;;;;;;30.20;21.35;;;12.30;99.90;;;;;;2748812;37;20582;31
2023/04/11 10:15:53;;;;;;;29.05;19.73;;;12.50;99.90;;;;;;2607257;54;20158;31
2023/04/11 10:18:27;;;;;;;34.13;22.42;;;12.60;99.90;;;;;;2607776;54;20034;31
2023/04/11 10:21:04;;;;;;;29.15;20.60;;;12.90;99.90;;;;;;2626076;46;20026;31
2023/04/11 10:23:56;;;;;;;28.75;20.00;;;13.00;99.90;;;;;;2626076;46;20947;31
2023/04/11 10:26:48;;;;;;;24.95;18.65;;;13.10;99.90;;;;;;2607631;54;20026;31
2023/04/11 10:29:52;;;;;;;22.13;16.52;;;13.20;99.90;;;;;;2607232;54;20108;31
2023/04/11 10:32:29;;;;;;;22.27;16.30;;;13.30;99.90;;;;;;2607052;54;20080;31
2023/04/11 10:35:32;;;;;;;21.85;15.50;;;13.40;99.90;;;;;;2625928;46;20026;31
2023/04/11 10:38:10;;;;;;;21.52;15.48;;;13.40;99.90;;;;;;2607340;54;20044;31
2023/04/11 10:41:16;;;;;;;19.67;14.85;;;13.40;99.90;;;;;;2607468;54;20030;31
2023/04/11 10:43:55;;;;;;;19.95;14.65;;;13.50;99.90;;;;;;2607337;54;20045;31
2023/04/11 10:46:30;;;;;;;20.10;14.73;;;13.50;99.90;;;;;;2607334;54;20856;31
2023/04/11 10:49:09;;;;;;;21.00;14.75;;;13.40;99.90;;;;;;2606714;54;20037;31
2023/04/11 10:51:46;;;;;;;20.05;14.27;;;13.50;99.90;;;;;;2607217;54;20879;31
2023/04/11 10:54:22;;;;;;;21.90;14.70;;;13.50;99.90;;;;;;2607100;54;20776;31
2023/04/11 10:57:01;;;;;;;18.38;13.30;;;13.50;99.90;;;;;;2606539;54;20132;31
2023/04/11 11:00:14;;;;;;;17.37;13.23;;;13.50;99.90;;;;;;2607483;54;20056;31
2023/04/11 11:02:50;;;;;;;16.35;12.18;;;13.50;99.90;;;;;;2607039;54;20888;31
2023/04/11 11:05:30;;;;;;;15.68;12.02;;;13.40;99.90;;;;;;2607257;54;20030;31
2023/04/11 11:08:06;;;;;;;16.27;12.38;;;13.40;99.90;;;;;;2625942;46;20030;31
2023/04/11 11:10:45;;;;;;;17.60;13.10;;;13.30;99.90;;;;;;2625821;46;20034;31
2023/04/11 11:13:21;;;;;;;17.50;14.05;;;13.20;99.90;;;;;;2606926;54;20772;31
2023/04/11 11:15:57;;;;;;;21.38;14.43;;;13.10;99.90;;;;;;2607153;54;20794;31
2023/04/11 11:18:33;;;;;;;21.38;15.30;;;13.00;99.90;;;;;;2607364;54;20030;31
2023/04/11 11:21:15;;;;;;;21.02;14.73;;;12.90;99.90;;;;;;2607074;54;20550;31
2023/04/11 11:24:03;;;;;;;30.95;14.25;;;12.80;99.90;;;;;;2702931;39;20493;31
2023/04/11 11:26:40;;;;;;;22.23;15.98;;;12.60;99.90;;;;;;2602966;54;20834;31
2023/04/11 11:29:16;;;;;;;20.35;13.93;;;12.40;99.90;;;;;;2615456;46;20093;31
2023/04/11 11:31:54;;;;;;;;;;;12.20;99.90;;;;;;2603752;54;19952;31
2023/04/11 11:34:29;;;;;;;17.60;11.83;;;12.00;99.90;;;;;;2603669;54;19961;31
2023/04/11 11:37:08;;;;;;;11.88;9.18;;;11.80;99.90;;;;;;2603903;54;20085;31
2023/04/11 11:39:47;;;;;;;12.70;7.85;;;11.60;99.90;;;;;;2602746;54;20082;31
2023/04/11 11:42:23;;;;;;;7.90;6.28;;;11.30;99.90;;;;;;2603716;54;20055;31
2023/04/11 11:44:57;;;;;;;;;;;11.20;99.90;;;;;;2604023;54;20733;31
2023/04/11 11:47:42;;;;;;;6.97;5.15;;;11.10;99.90;;;;;;2603041;54;20300;31
2023/04/11 11:50:28;;;;;;;7.83;5.27;;;10.90;99.90;;;;;;2603548;54;20034;31
2023/04/11 11:53:16;;;;;;;;;;;10.70;99.90;;;;;;2622110;46;20069;31
2023/04/11 11:55:51;;;;;;;;;;;10.60;99.90;;;;;;2603664;54;20782;31
2023/04/11 11:58:26;;;;;;;9.32;6.38;;;10.60;99.90;;;;;;2603546;54;19935;31
2023/04/11 12:01:04;;;;;;;8.77;6.15;;;10.50;99.90;;;;;;2603527;54;20030;31
2023/04/11 12:03:41;;;;;;;9.00;6.57;;;10.40;99.90;;;;;;2603535;54;20759;31
2023/04/11 12:06:17;;;;;;;11.07;6.13;;;10.30;99.90;;;;;;2603891;54;20026;31
2023/04/11 12:08:56;;;;;;;11.70;5.72;;;10.30;99.90;;;;;;2603622;54;20026;31
2023/04/11 12:11:40;;;;;;;8.87;5.80;;;10.20;99.90;;;;;;2603265;54;20762;31
2023/04/11 12:14:25;;;;;;;8.65;5.90;;;10.10;99.90;;;;;;2622059;46;20031;31
2023/04/11 12:17:00;;;;;;;10.45;5.88;;;10.00;99.90;;;;;;2621679;46;20920;31
2023/04/11 12:19:37;;;;;;;10.30;6.72;;;9.90;99.90;;;;;;2603546;54;20029;31
2023/04/11 12:22:13;;;;;;;10.52;6.22;;;9.80;99.90;;;;;;2603501;54;20928;31
2023/04/11 12:24:53;;;;;;;11.45;7.10;;;9.80;99.90;;;;;;2602853;54;20034;31
2023/04/11 12:27:29;;;;;;;10.05;6.95;;;9.70;99.90;;;;;;2720543;39;20482;31
2023/04/11 12:30:06;;;;;;;10.98;6.32;;;9.70;99.90;;;;;;2602792;54;20745;31
2023/04/11 12:32:44;;;;;;;12.13;7.20;;;9.70;99.90;;;;;;2603480;54;20798;31
2023/04/11 12:35:21;;;;;;;14.45;7.82;;;9.60;99.90;;;;;;2602858;54;20914;31
2023/04/11 12:37:58;;;;;;;14.90;7.85;;;9.60;99.90;;;;;;2603359;54;20094;31
2023/04/11 12:40:37;;;;;;;14.35;7.70;;;9.60;99.90;;;;;;2603500;54;20034;31
2023/04/11 12:43:13;;;;;;;13.43;7.75;;;9.50;99.90;;;;;;2603317;54;20031;31
2023/04/11 12:45:53;;;;;;;10.98;6.85;;;9.50;99.90;;;;;;2602674;54;20018;31
2023/04/11 12:48:30;;;;;;;9.07;6.30;;;9.40;99.90;;;;;;2603493;54;20866;31
2023/04/11 12:51:06;;;;;;;10.60;6.78;;;9.30;99.90;;;;;;2603602;54;20866;31
2023/04/11 12:53:42;;;;;;;11.27;6.55;;;9.20;99.90;;;;;;2603395;54;20052;31
2023/04/11 12:56:22;;;;;;;11.60;7.35;;;9.20;99.90;;;;;;2603228;54;20038;31
2023/04/11 12:58:59;;;;;;;13.65;7.55;;;9.20;99.90;;;;;;2621939;46;20902;31
2023/04/11 13:01:35;;;;;;;8.35;5.78;;;9.30;99.90;;;;;;2603179;54;20030;31
2023/04/11 13:04:10;;;;;;;7.65;5.53;;;9.30;99.90;;;;;;2622012;46;20896;31
2023/04/11 13:06:47;;;;;;;8.65;5.70;;;9.30;99.90;;;;;;2603611;54;20877;31
2023/04/11 13:09:23;;;;;;;8.38;5.35;;;9.40;99.90;;;;;;2603504;54;20052;31
2023/04/11 13:12:03;;;;;;;7.80;5.47;;;9.40;99.90;;;;;;2621408;46;20838;31
2023/04/11 13:14:40;;;;;;;7.35;5.53;;;9.50;99.90;;;;;;2603142;54;20305;31
2023/04/11 13:17:16;;;;;;;10.25;5.50;;;9.60;99.90;;;;;;2602525;54;20034;31
2023/04/11 13:19:53;;;;;;;7.55;4.90;;;9.60;99.90;;;;;;2621666;46;20884;31
2023/04/11 13:22:30;;;;;;;9.70;6.15;;;9.70;99.90;;;;;;2621599;46;19938;31
2023/04/11 13:25:06;;;;;;;9.13;6.30;;;9.80;99.90;;;;;;2603522;54;20026;31
2023/04/11 13:27:45;;;;;;;11.00;6.10;;;9.90;99.90;;;;;;2603208;54;20034;31
2023/04/11 13:30:27;;;;;;;8.50;6.30;;;9.90;99.90;;;;;;2602849;54;20762;31
2023/04/11 13:33:05;;;;;;;11.70;7.65;;;10.00;99.90;;;;;;2772439;31;20704;31
2023/04/11 13:35:39;;;;;;;11.57;7.45;;;10.00;99.90;;;;;;2715638;39;22484;31
2023/04/11 13:38:14;;;;;;;7.70;5.75;;;10.10;99.90;;;;;;2603410;54;20030;31
2023/04/11 13:40:52;;;;;;;5.67;3.70;;;10.10;99.90;;;;;;2773033;31;21371;31
2023/04/11 13:43:37;;;;;;;5.00;3.55;;;10.20;99.90;;;;;;2603199;54;20100;31
2023/04/11 13:46:14;;;;;;;7.68;4.78;;;10.20;99.90;;;;;;2603125;54;20030;31
2023/04/11 13:48:51;;;;;;;7.00;5.30;;;10.20;99.90;;;;;;2603424;54;20853;31
2023/04/11 13:51:29;;;;;;;7.80;5.90;;;10.20;99.90;;;;;;2602389;54;20867;31